Time;durP1;ratioP1;P1;durP2;ratioP2;P2;SDS_P1;SDS_P2;PMS_P1;PMS_P2;Temp;Humidity;BMP_temperature;BMP_pressure;BME280_temperature;BME280_humidity;BME280_pressure;Samples;Min_cycle;Max_cycle;Signal;HPM_P1;HPM_P2
2022/09/18 00:01:18;;;;;;;1.05;0.52;;;;;;;;;;4996213;28;20370;-82
2022/09/18 00:03:46;;;;;;;1.08;0.47;;;;;;;;;;4996422;28;20510;-82
2022/09/18 00:06:17;;;;;;;2.17;0.80;;;;;;;;;;4994701;28;20037;-82
2022/09/18 00:08:43;;;;;;;1.58;0.60;;;;;;;;;;4996912;28;20034;-83
2022/09/18 00:11:11;;;;;;;3.33;0.50;;;;;;;;;;4994313;28;20041;-82
2022/09/18 00:13:38;;;;;;;3.83;0.40;;;;;;;;;;4996112;28;20118;-83
2022/09/18 00:16:05;;;;;;;0.50;0.47;;;;;;;;;;4996102;28;20038;-83
2022/09/18 00:18:30;;;;;;;3.55;0.50;;;;;;;;;;4996370;28;20038;-83
2022/09/18 00:21:10;;;;;;;1.98;0.60;;;;;;;;;;4996703;28;20042;-83
2022/09/18 00:23:36;;;;;;;2.88;0.60;;;;;;;;;;4997372;28;20046;-83
2022/09/18 00:26:03;;;;;;;2.22;0.68;;;;;;;;;;4995642;28;20042;-83
2022/09/18 00:28:28;;;;;;;4.63;0.88;;;;;;;;;;4994927;28;20034;-83
2022/09/18 00:30:54;;;;;;;3.72;0.80;;;;;;;;;;5011162;28;20114;-83
2022/09/18 00:33:19;;;;;;;3.83;0.60;;;;;;;;;;4994819;28;20133;-83
2022/09/18 00:35:45;;;;;;;2.22;0.73;;;;;;;;;;4994516;28;20038;-83
2022/09/18 00:38:11;;;;;;;2.17;0.70;;;;;;;;;;4996525;28;20464;-83
2022/09/18 00:40:37;;;;;;;2.30;0.77;;;;;;;;;;4996413;28;20034;-83
2022/09/18 00:43:24;;;;;;;4.15;0.82;;;;;;;;;;4994861;28;20041;-83
2022/09/18 00:46:16;;;;;;;4.03;0.70;;;;;;;;;;4978277;28;20084;-83
2022/09/18 00:48:56;;;;;;;2.00;0.70;;;;;;;;;;4994374;28;20453;-82
2022/09/18 00:51:24;;;;;;;4.50;0.85;;;;;;;;;;4996407;28;20030;-83
2022/09/18 00:53:58;;;;;;;4.97;0.80;;;;;;;;;;4995626;28;20530;-82
2022/09/18 00:56:24;;;;;;;2.90;0.80;;;;;;;;;;4994954;28;20553;-83
2022/09/18 00:58:50;;;;;;;3.10;0.90;;;;;;;;;;4994794;28;20030;-83
2022/09/18 01:01:16;;;;;;;3.88;0.70;;;;;;;;;;4994400;28;20459;-83
2022/09/18 01:03:41;;;;;;;5.15;0.80;;;;;;;;;;4994560;28;20093;-82
2022/09/18 01:06:15;;;;;;;2.35;0.70;;;;;;;;;;4993658;28;20087;-83
2022/09/18 01:08:56;;;;;;;2.40;0.95;;;;;;;;;;4994411;28;20419;-82
2022/09/18 01:11:24;;;;;;;5.00;1.08;;;;;;;;;;4994022;28;20488;-83
2022/09/18 01:14:34;;;;;;;7.13;0.98;;;;;;;;;;4994610;28;20176;-82
2022/09/18 01:17:20;;;;;;;4.97;1.33;;;;;;;;;;4954439;29;20043;-83
2022/09/18 01:20:21;;;;;;;5.22;0.80;;;;;;;;;;5006770;28;20455;-82
2022/09/18 01:23:03;;;;;;;2.88;0.70;;;;;;;;;;4980301;28;20042;-83
2022/09/18 01:26:03;;;;;;;5.45;0.80;;;;;;;;;;4977859;28;20089;-83
2022/09/18 01:28:57;;;;;;;5.13;0.90;;;;;;;;;;4994008;28;20084;-83
2022/09/18 01:31:50;;;;;;;3.88;0.70;;;;;;;;;;4994179;28;20026;-83
2022/09/18 01:35:00;;;;;;;2.47;0.70;;;;;;;;;;4993450;28;20042;-83
2022/09/18 01:37:40;;;;;;;7.60;1.00;;;;;;;;;;5001514;28;20523;-83
2022/09/18 01:40:16;;;;;;;4.22;1.00;;;;;;;;;;4993861;28;20123;-83
2022/09/18 01:42:45;;;;;;;3.22;0.70;;;;;;;;;;4994158;28;20065;-83
2022/09/18 01:45:16;;;;;;;5.18;1.05;;;;;;;;;;4993216;28;20104;-82
2022/09/18 01:48:05;;;;;;;3.42;0.70;;;;;;;;;;4994181;28;20101;-83
2022/09/18 01:50:39;;;;;;;6.18;1.05;;;;;;;;;;4993872;28;20042;-83
2022/09/18 01:53:20;;;;;;;4.57;1.00;;;;;;;;;;4994056;28;20040;-83
2022/09/18 01:55:55;;;;;;;5.25;1.00;;;;;;;;;;4993612;28;20034;-82
2022/09/18 01:58:23;;;;;;;2.85;0.90;;;;;;;;;;5010467;28;20038;-82
2022/09/18 02:00:55;;;;;;;4.95;1.10;;;;;;;;;;4994168;28;20574;-83
2022/09/18 02:03:26;;;;;;;7.30;1.17;;;;;;;;;;4995270;28;20085;-83
2022/09/18 02:06:02;;;;;;;4.03;0.80;;;;;;;;;;4977542;28;20030;-82
2022/09/18 02:08:36;;;;;;;5.53;0.70;;;;;;;;;;4994238;28;20054;-82
2022/09/18 02:11:05;;;;;;;2.28;0.63;;;;;;;;;;4992677;28;20068;-82
2022/09/18 02:13:37;;;;;;;3.08;0.80;;;;;;;;;;4978096;28;20098;-83
2022/09/18 02:16:12;;;;;;;3.28;0.85;;;;;;;;;;4978792;28;20068;-83
2022/09/18 02:18:39;;;;;;;;;;;;;;;;;;5014071;28;20130;-82
2022/09/18 02:21:12;;;;;;;0.68;0.43;;;;;;;;;;4997051;28;19916;-84
2022/09/18 02:23:40;;;;;;;1.52;0.85;;;;;;;;;;4997005;28;20026;-83
2022/09/18 02:26:08;;;;;;;1.00;0.50;;;;;;;;;;4996411;28;20042;-83
2022/09/18 02:28:35;;;;;;;2.40;0.77;;;;;;;;;;4996920;28;20096;-83
2022/09/18 02:31:00;;;;;;;0.88;0.50;;;;;;;;;;5013433;28;20038;-83
2022/09/18 02:33:31;;;;;;;3.08;0.70;;;;;;;;;;4996769;28;20045;-83
2022/09/18 02:36:21;;;;;;;1.65;0.73;;;;;;;;;;5012218;28;20034;-83
2022/09/18 02:39:15;;;;;;;1.83;0.65;;;;;;;;;;4997519;28;20034;-83
2022/09/18 02:42:10;;;;;;;1.95;0.65;;;;;;;;;;4996228;28;20384;-83
2022/09/18 02:44:50;;;;;;;0.90;0.57;;;;;;;;;;4996491;28;20415;-84
2022/09/18 02:47:31;;;;;;;1.23;0.63;;;;;;;;;;5013147;28;20038;-84
2022/09/18 02:50:03;;;;;;;0.47;0.47;;;;;;;;;;5013274;28;20104;-84
2022/09/18 02:52:54;;;;;;;1.30;0.50;;;;;;;;;;5012992;28;20105;-83
2022/09/18 02:55:27;;;;;;;1.20;0.70;;;;;;;;;;4995752;28;20046;-83
2022/09/18 02:58:02;;;;;;;1.73;0.60;;;;;;;;;;4996876;28;20042;-83
2022/09/18 03:00:30;;;;;;;1.20;0.55;;;;;;;;;;4996768;28;20635;-83
2022/09/18 03:02:58;;;;;;;1.55;0.60;;;;;;;;;;4996012;28;20034;-83
2022/09/18 03:05:49;;;;;;;3.58;0.80;;;;;;;;;;4996399;28;20034;-83
2022/09/18 03:08:15;;;;;;;1.83;0.65;;;;;;;;;;4996162;28;20030;-83
2022/09/18 03:10:41;;;;;;;2.58;0.90;;;;;;;;;;4994854;28;20076;-83
2022/09/18 03:13:08;;;;;;;4.28;0.90;;;;;;;;;;4995610;28;20030;-83
2022/09/18 03:15:34;;;;;;;2.13;0.50;;;;;;;;;;4995384;28;20586;-83
2022/09/18 03:18:00;;;;;;;3.17;0.90;;;;;;;;;;4996037;28;20137;-83
2022/09/18 03:20:25;;;;;;;2.65;0.90;;;;;;;;;;4996363;28;20042;-83
2022/09/18 03:22:51;;;;;;;1.63;0.73;;;;;;;;;;4996069;28;20062;-83
2022/09/18 03:25:17;;;;;;;2.13;0.60;;;;;;;;;;5012067;28;20065;-83
2022/09/18 03:27:42;;;;;;;2.47;0.75;;;;;;;;;;4995532;28;20041;-83
2022/09/18 03:30:10;;;;;;;5.55;1.13;;;;;;;;;;4995898;28;20038;-83
2022/09/18 03:32:36;;;;;;;2.60;0.90;;;;;;;;;;4995713;28;20042;-83
2022/09/18 03:35:04;;;;;;;1.88;0.70;;;;;;;;;;4995575;28;20419;-83
2022/09/18 03:37:30;;;;;;;5.68;1.10;;;;;;;;;;4995422;28;20511;-83
2022/09/18 03:39:57;;;;;;;3.08;0.90;;;;;;;;;;4995954;28;20034;-83
2022/09/18 03:42:24;;;;;;;2.67;0.80;;;;;;;;;;4979494;28;20041;-83
2022/09/18 03:44:49;;;;;;;4.00;0.70;;;;;;;;;;4995209;28;20408;-83
2022/09/18 03:47:25;;;;;;;2.20;0.70;;;;;;;;;;4995458;28;20030;-84
2022/09/18 03:49:51;;;;;;;2.10;0.80;;;;;;;;;;4995284;28;20034;-83
2022/09/18 03:52:18;;;;;;;3.03;0.80;;;;;;;;;;5011696;28;20445;-83
2022/09/18 03:54:51;;;;;;;6.15;0.80;;;;;;;;;;4995002;28;20126;-83
2022/09/18 03:57:36;;;;;;;5.00;1.00;;;;;;;;;;4996218;28;20518;-83
2022/09/18 04:00:19;;;;;;;2.17;0.68;;;;;;;;;;4995217;28;20387;-83
2022/09/18 04:02:51;;;;;;;7.43;0.80;;;;;;;;;;4979989;28;20042;-83
2022/09/18 04:05:32;;;;;;;3.25;1.25;;;;;;;;;;4996071;28;20486;-83
2022/09/18 04:08:30;;;;;;;4.40;0.82;;;;;;;;;;4974107;28;20034;-82
2022/09/18 04:11:12;;;;;;;3.85;0.85;;;;;;;;;;4994091;28;20030;-83
2022/09/18 04:13:38;;;;;;;2.47;0.90;;;;;;;;;;4995081;28;20398;-83
2022/09/18 04:16:07;;;;;;;2.63;0.77;;;;;;;;;;4994353;28;20030;-83
2022/09/18 04:18:32;;;;;;;1.75;0.70;;;;;;;;;;4995370;28;20034;-83
2022/09/18 04:21:00;;;;;;;2.60;0.70;;;;;;;;;;4995248;28;20034;-83
2022/09/18 04:23:26;;;;;;;2.95;0.88;;;;;;;;;;4995395;28;20023;-83
2022/09/18 04:25:54;;;;;;;4.05;0.80;;;;;;;;;;4995112;28;20034;-84
2022/09/18 04:28:23;;;;;;;3.03;0.57;;;;;;;;;;4979236;28;20402;-83
2022/09/18 04:30:48;;;;;;;4.82;0.85;;;;;;;;;;5011611;28;20117;-83
2022/09/18 04:33:14;;;;;;;3.72;0.90;;;;;;;;;;4995159;28;20045;-83
2022/09/18 04:35:40;;;;;;;6.25;0.85;;;;;;;;;;4994820;28;20035;-83
2022/09/18 04:38:07;;;;;;;2.92;0.70;;;;;;;;;;5011629;28;20034;-83
2022/09/18 04:40:33;;;;;;;2.65;0.80;;;;;;;;;;4994676;28;20505;-83
2022/09/18 04:42:59;;;;;;;1.90;0.80;;;;;;;;;;4994408;28;20037;-82
2022/09/18 04:45:25;;;;;;;3.60;0.80;;;;;;;;;;4994300;28;20099;-83
2022/09/18 04:47:51;;;;;;;3.20;1.02;;;;;;;;;;4995950;28;20542;-83
2022/09/18 04:50:19;;;;;;;3.30;0.70;;;;;;;;;;4994600;28;20066;-83
2022/09/18 04:53:03;;;;;;;3.25;0.70;;;;;;;;;;4995776;28;20057;-83
2022/09/18 04:55:31;;;;;;;2.05;0.68;;;;;;;;;;4994187;28;20034;-84
2022/09/18 04:57:57;;;;;;;3.63;0.85;;;;;;;;;;5010949;28;20036;-83
2022/09/18 05:00:22;;;;;;;2.15;1.08;;;;;;;;;;4994508;28;20506;-83
2022/09/18 05:02:48;;;;;;;3.95;0.80;;;;;;;;;;4978212;28;20030;-83
2022/09/18 05:05:17;;;;;;;2.50;0.90;;;;;;;;;;4993752;28;20040;-83
2022/09/18 05:07:43;;;;;;;2.38;0.80;;;;;;;;;;4995631;28;20113;-84
2022/09/18 05:10:09;;;;;;;1.83;0.75;;;;;;;;;;4994664;28;20030;-83
2022/09/18 05:12:41;;;;;;;2.80;0.80;;;;;;;;;;4993472;28;20030;-84
2022/09/18 05:15:07;;;;;;;3.15;0.90;;;;;;;;;;4993643;28;20031;-83
2022/09/18 05:17:33;;;;;;;1.40;0.70;;;;;;;;;;5010734;28;20029;-84
2022/09/18 05:20:01;;;;;;;2.67;0.90;;;;;;;;;;5010750;28;20038;-83
2022/09/18 05:22:35;;;;;;;;;;;;;;;;;;4994376;28;20066;-81
2022/09/18 05:25:05;;;;;;;3.28;1.00;;;;;;;;;;5010031;28;20055;-83
2022/09/18 05:27:32;;;;;;;1.67;0.70;;;;;;;;;;4977856;28;20491;-83
2022/09/18 05:29:58;;;;;;;3.60;1.38;;;;;;;;;;4994092;28;20031;-84
2022/09/18 05:32:35;;;;;;;3.47;1.10;;;;;;;;;;4994404;28;20044;-84
2022/09/18 05:35:00;;;;;;;2.95;0.90;;;;;;;;;;4994644;28;20407;-83
2022/09/18 05:37:25;;;;;;;2.35;0.80;;;;;;;;;;4994187;28;20042;-84
2022/09/18 05:39:53;;;;;;;2.15;0.70;;;;;;;;;;4994075;28;20038;-83
2022/09/18 05:42:19;;;;;;;1.25;0.70;;;;;;;;;;4993960;28;20502;-84
2022/09/18 05:44:44;;;;;;;2.65;0.90;;;;;;;;;;4993536;28;20049;-83
2022/09/18 05:47:15;;;;;;;2.67;0.80;;;;;;;;;;4994681;28;20088;-84
2022/09/18 05:49:41;;;;;;;2.08;0.70;;;;;;;;;;4994794;28;20026;-83
2022/09/18 05:52:07;;;;;;;4.90;1.20;;;;;;;;;;5029205;28;20041;-83
2022/09/18 05:54:35;;;;;;;3.08;0.93;;;;;;;;;;5017541;28;20033;-83
2022/09/18 05:57:00;;;;;;;2.15;0.70;;;;;;;;;;5001166;28;20068;-82
2022/09/18 05:59:26;;;;;;;2.05;0.70;;;;;;;;;;5013513;28;20109;-82
2022/09/18 06:01:54;;;;;;;2.05;0.80;;;;;;;;;;5014708;28;20045;-83
2022/09/18 06:04:25;;;;;;;1.63;0.60;;;;;;;;;;5017763;28;20494;-83
2022/09/18 06:06:56;;;;;;;1.98;0.60;;;;;;;;;;5018265;28;20522;-83
2022/09/18 06:09:22;;;;;;;1.17;0.50;;;;;;;;;;5016598;28;20052;-84
2022/09/18 06:11:47;;;;;;;1.42;0.65;;;;;;;;;;5015187;28;20034;-84
2022/09/18 06:14:14;;;;;;;3.40;0.70;;;;;;;;;;5004420;28;20081;-83
2022/09/18 06:16:40;;;;;;;5.25;0.90;;;;;;;;;;4996570;28;20103;-84
2022/09/18 06:19:07;;;;;;;5.25;0.90;;;;;;;;;;5000722;28;20027;-84
2022/09/18 06:21:32;;;;;;;2.80;0.80;;;;;;;;;;4996746;28;20034;-84
2022/09/18 06:23:58;;;;;;;3.50;0.80;;;;;;;;;;4999777;28;20026;-82
2022/09/18 06:26:43;;;;;;;2.10;0.90;;;;;;;;;;5002583;28;20034;-84
2022/09/18 06:29:08;;;;;;;3.92;1.20;;;;;;;;;;4999641;28;20037;-83
2022/09/18 06:31:46;;;;;;;4.88;0.90;;;;;;;;;;5004128;28;20034;-83
2022/09/18 06:34:17;;;;;;;3.92;0.90;;;;;;;;;;4995860;28;20042;-83
2022/09/18 06:36:43;;;;;;;2.17;0.70;;;;;;;;;;4997839;28;20036;-82
2022/09/18 06:39:22;;;;;;;2.63;0.73;;;;;;;;;;4997576;28;20038;-83
2022/09/18 06:41:52;;;;;;;3.20;1.00;;;;;;;;;;4984793;28;20030;-83
2022/09/18 06:44:25;;;;;;;2.53;0.82;;;;;;;;;;5015386;28;20033;-84
2022/09/18 06:47:02;;;;;;;3.00;0.90;;;;;;;;;;4996116;28;20682;-83
2022/09/18 06:49:35;;;;;;;2.60;0.90;;;;;;;;;;4995755;28;20034;-83
2022/09/18 06:52:03;;;;;;;3.20;0.80;;;;;;;;;;4988810;28;20532;-84
2022/09/18 06:54:29;;;;;;;4.05;0.90;;;;;;;;;;5005205;28;20027;-83
2022/09/18 06:56:55;;;;;;;3.75;0.98;;;;;;;;;;5007494;28;20469;-85
2022/09/18 06:59:21;;;;;;;1.27;1.00;;;;;;;;;;4997136;28;20080;-84
2022/09/18 07:01:49;;;;;;;2.00;0.80;;;;;;;;;;4997804;28;20495;-85
2022/09/18 07:04:26;;;;;;;2.92;1.00;;;;;;;;;;4981806;28;20069;-84
2022/09/18 07:06:51;;;;;;;2.88;0.90;;;;;;;;;;4996210;28;20043;-84
2022/09/18 07:09:17;;;;;;;4.47;0.90;;;;;;;;;;4996060;28;20025;-84
2022/09/18 07:11:59;;;;;;;3.75;0.80;;;;;;;;;;4996140;28;20037;-84
2022/09/18 07:14:38;;;;;;;2.78;1.10;;;;;;;;;;4996391;28;20573;-83
2022/09/18 07:17:10;;;;;;;2.00;0.50;;;;;;;;;;4996548;28;20442;-84
2022/09/18 07:19:36;;;;;;;0.75;0.68;;;;;;;;;;4996927;28;20038;-85
2022/09/18 07:22:04;;;;;;;1.90;1.00;;;;;;;;;;4996845;28;20029;-84
2022/09/18 07:24:35;;;;;;;1.92;0.90;;;;;;;;;;4996758;28;20030;-84
2022/09/18 07:27:03;;;;;;;2.08;1.08;;;;;;;;;;4980422;28;20026;-84
2022/09/18 07:29:28;;;;;;;1.50;0.90;;;;;;;;;;4996745;28;20037;-84
2022/09/18 07:31:55;;;;;;;1.75;0.90;;;;;;;;;;4996910;28;20409;-83
2022/09/18 07:34:21;;;;;;;2.05;1.10;;;;;;;;;;4997914;28;20495;-86
2022/09/18 07:36:49;;;;;;;2.13;0.80;;;;;;;;;;4995871;28;20034;-87
2022/09/18 07:39:15;;;;;;;3.65;1.30;;;;;;;;;;4997359;28;20082;-84
2022/09/18 07:41:59;;;;;;;2.65;0.90;;;;;;;;;;4997363;28;20071;-85
2022/09/18 07:44:26;;;;;;;7.10;2.03;;;;;;;;;;4996614;28;20031;-83
2022/09/18 07:46:54;;;;;;;4.32;1.30;;;;;;;;;;4997102;28;20061;-84
2022/09/18 07:49:20;;;;;;;1.63;0.88;;;;;;;;;;4996078;28;20026;-84
2022/09/18 07:51:47;;;;;;;1.27;0.70;;;;;;;;;;4997240;28;20046;-85
2022/09/18 07:54:14;;;;;;;2.33;0.82;;;;;;;;;;4996119;28;20463;-84
2022/09/18 07:56:57;;;;;;;2.13;0.93;;;;;;;;;;4982590;28;20418;-85
2022/09/18 07:59:27;;;;;;;7.15;2.83;;;;;;;;;;4995589;28;20678;-85
2022/09/18 08:01:57;;;;;;;3.47;1.38;;;;;;;;;;4979665;28;20041;-84
2022/09/18 08:04:24;;;;;;;2.42;0.80;;;;;;;;;;4995211;28;20118;-84
2022/09/18 08:07:07;;;;;;;1.38;0.60;;;;;;;;;;4995063;28;20108;-84
2022/09/18 08:09:51;;;;;;;2.72;1.10;;;;;;;;;;4995341;28;20100;-83
2022/09/18 08:12:52;;;;;;;3.38;1.65;;;;;;;;;;4980489;28;20492;-83
2022/09/18 08:15:42;;;;;;;1.30;0.73;;;;;;;;;;4994838;28;20038;-83
2022/09/18 08:18:20;;;;;;;0.93;0.82;;;;;;;;;;4995430;28;20392;-83
2022/09/18 08:21:01;;;;;;;2.63;0.85;;;;;;;;;;4996215;28;20113;-84
2022/09/18 08:23:47;;;;;;;0.90;0.80;;;;;;;;;;4998977;28;20053;-84
2022/09/18 08:26:13;;;;;;;0.70;0.70;;;;;;;;;;4999698;28;20096;-84
2022/09/18 08:28:38;;;;;;;1.20;0.70;;;;;;;;;;5000103;28;20050;-84
2022/09/18 08:31:05;;;;;;;1.63;1.00;;;;;;;;;;4983255;28;20499;-85
2022/09/18 08:33:31;;;;;;;1.77;0.80;;;;;;;;;;5000740;28;20042;-85
2022/09/18 08:35:58;;;;;;;1.15;0.68;;;;;;;;;;4981783;28;20030;-84
2022/09/18 08:38:33;;;;;;;2.65;1.10;;;;;;;;;;4998115;28;20031;-84
2022/09/18 08:41:27;;;;;;;1.00;0.60;;;;;;;;;;4997301;28;20121;-84
2022/09/18 08:44:07;;;;;;;2.22;1.20;;;;;;;;;;4998126;28;20070;-84
2022/09/18 08:46:41;;;;;;;1.38;1.00;;;;;;;;;;4998010;28;20083;-84
2022/09/18 08:49:29;;;;;;;2.17;1.00;;;;;;;;;;4997979;28;20036;-84
2022/09/18 08:52:16;;;;;;;0.93;0.70;;;;;;;;;;4998334;28;20057;-84
2022/09/18 08:54:52;;;;;;;2.88;1.48;;;;;;;;;;4998960;28;20060;-84
2022/09/18 08:57:41;;;;;;;1.90;1.10;;;;;;;;;;5000030;28;20103;-85
2022/09/18 09:00:30;;;;;;;1.45;1.00;;;;;;;;;;4999028;28;20129;-85
2022/09/18 09:03:51;;;;;;;1.05;0.85;;;;;;;;;;5000832;28;20041;-85
2022/09/18 09:06:39;;;;;;;5.32;2.53;;;;;;;;;;5001257;28;20426;-85
2022/09/18 09:09:21;;;;;;;4.80;2.10;;;;;;;;;;5003794;28;20077;-85
2022/09/18 09:12:02;;;;;;;2.42;1.20;;;;;;;;;;4987329;28;20079;-85
2022/09/18 09:14:48;;;;;;;4.32;1.75;;;;;;;;;;4986516;28;20042;-85
2022/09/18 09:17:39;;;;;;;7.82;3.50;;;;;;;;;;5004052;28;20038;-85
2022/09/18 09:20:18;;;;;;;2.92;1.20;;;;;;;;;;5003439;28;20601;-85
2022/09/18 09:22:57;;;;;;;5.35;2.70;;;;;;;;;;5003729;28;20088;-84
2022/09/18 09:25:30;;;;;;;1.77;0.90;;;;;;;;;;5003060;28;20034;-84
2022/09/18 09:28:40;;;;;;;2.25;1.27;;;;;;;;;;5007153;28;20043;-85
2022/09/18 09:31:28;;;;;;;1.83;1.10;;;;;;;;;;5008226;28;20087;-85
2022/09/18 09:34:23;;;;;;;1.98;1.13;;;;;;;;;;5007935;28;20065;-85
2022/09/18 09:37:14;;;;;;;1.02;0.90;;;;;;;;;;5007069;28;20039;-85
2022/09/18 09:40:06;;;;;;;1.75;0.85;;;;;;;;;;5006298;28;20422;-85
2022/09/18 09:42:50;;;;;;;1.88;1.30;;;;;;;;;;5008024;28;20129;-84
2022/09/18 09:45:27;;;;;;;2.13;1.48;;;;;;;;;;5005869;28;20102;-84
2022/09/18 09:48:03;;;;;;;1.35;0.80;;;;;;;;;;5006513;28;20034;-84
2022/09/18 09:50:56;;;;;;;1.10;0.77;;;;;;;;;;5007313;28;20027;-85
2022/09/18 09:53:24;;;;;;;0.73;0.45;;;;;;;;;;5006470;28;20057;-84
2022/09/18 09:56:15;;;;;;;0.93;0.70;;;;;;;;;;4989342;28;20041;-84
2022/09/18 09:58:47;;;;;;;0.95;0.80;;;;;;;;;;5005942;28;20034;-85
2022/09/18 10:01:26;;;;;;;0.80;0.70;;;;;;;;;;4989032;28;20035;-85
2022/09/18 10:04:07;;;;;;;1.02;0.77;;;;;;;;;;4988234;28;20522;-86
2022/09/18 10:06:57;;;;;;;1.60;1.13;;;;;;;;;;5006668;28;20031;-84
2022/09/18 10:09:36;;;;;;;1.40;0.70;;;;;;;;;;4990253;28;20027;-84
2022/09/18 10:12:23;;;;;;;1.33;0.90;;;;;;;;;;4988542;28;20034;-85
2022/09/18 10:14:57;;;;;;;1.20;0.80;;;;;;;;;;5005690;28;20049;-84
2022/09/18 10:17:24;;;;;;;1.35;0.85;;;;;;;;;;5006292;28;20049;-85
2022/09/18 10:19:52;;;;;;;1.13;0.65;;;;;;;;;;5005195;28;20121;-84
2022/09/18 10:22:22;;;;;;;2.67;0.70;;;;;;;;;;5003600;28;20045;-82
2022/09/18 10:25:05;;;;;;;0.73;0.70;;;;;;;;;;5003362;28;20046;-85
2022/09/18 10:27:31;;;;;;;6.20;2.30;;;;;;;;;;5003486;28;20035;-84
2022/09/18 10:29:57;;;;;;;5.53;2.67;;;;;;;;;;4986972;28;20042;-85
2022/09/18 10:32:40;;;;;;;0.95;0.60;;;;;;;;;;4989136;28;20066;-85
2022/09/18 10:35:28;;;;;;;2.80;1.52;;;;;;;;;;5003455;28;20031;-85
2022/09/18 10:37:54;;;;;;;2.78;1.42;;;;;;;;;;5004912;28;21492;-84
2022/09/18 10:40:33;;;;;;;2.47;1.35;;;;;;;;;;5027377;28;20057;-84
2022/09/18 10:43:01;;;;;;;;;;;;;;;;;;5027499;28;20037;-82
2022/09/18 10:45:30;;;;;;;2.58;1.27;;;;;;;;;;5014205;28;19919;-84
2022/09/18 10:48:21;;;;;;;1.55;1.00;;;;;;;;;;5017591;28;20057;-85
2022/09/18 10:50:56;;;;;;;2.13;1.40;;;;;;;;;;5017745;28;20448;-84
2022/09/18 10:53:32;;;;;;;1.98;1.20;;;;;;;;;;5024847;28;20037;-84
2022/09/18 10:56:16;;;;;;;3.58;1.80;;;;;;;;;;5026033;28;20095;-83
2022/09/18 10:58:42;;;;;;;2.55;0.95;;;;;;;;;;5022282;28;20030;-83
2022/09/18 11:01:09;;;;;;;2.10;1.50;;;;;;;;;;5023537;28;20033;-84
2022/09/18 11:03:36;;;;;;;1.83;0.80;;;;;;;;;;5022921;28;20053;-84
2022/09/18 11:06:23;;;;;;;4.35;2.50;;;;;;;;;;5023736;28;20052;-84
2022/09/18 11:08:52;;;;;;;3.10;1.80;;;;;;;;;;5024260;28;20061;-84
2022/09/18 11:11:33;;;;;;;1.35;0.98;;;;;;;;;;5022772;28;20037;-83
2022/09/18 11:14:25;;;;;;;2.28;1.20;;;;;;;;;;5022904;28;20034;-83
2022/09/18 11:17:22;;;;;;;0.70;0.60;;;;;;;;;;5022257;28;20416;-83
2022/09/18 11:19:51;;;;;;;1.70;1.38;;;;;;;;;;5025282;28;20030;-84
2022/09/18 11:22:42;;;;;;;3.17;1.95;;;;;;;;;;5025728;28;20030;-83
2022/09/18 11:25:20;;;;;;;4.03;2.50;;;;;;;;;;5025265;28;20045;-83
2022/09/18 11:27:50;;;;;;;2.72;1.85;;;;;;;;;;5025119;28;20175;-83
2022/09/18 11:30:22;;;;;;;1.90;1.08;;;;;;;;;;5007477;28;20514;-82
2022/09/18 11:32:52;;;;;;;2.78;1.73;;;;;;;;;;5024431;28;20041;-84
2022/09/18 11:35:21;;;;;;;4.30;2.33;;;;;;;;;;5023716;28;20034;-84
2022/09/18 11:37:53;;;;;;;1.15;0.90;;;;;;;;;;5006224;28;20137;-82
2022/09/18 11:40:44;;;;;;;0.70;0.55;;;;;;;;;;5022373;28;20038;-83
2022/09/18 11:43:21;;;;;;;1.13;0.70;;;;;;;;;;5023479;28;20037;-83
2022/09/18 11:46:02;;;;;;;1.33;0.70;;;;;;;;;;5022969;28;20112;-83
2022/09/18 11:48:43;;;;;;;0.70;0.60;;;;;;;;;;4999097;28;20030;-84
2022/09/18 11:51:29;;;;;;;1.65;0.65;;;;;;;;;;5021168;28;20052;-83
2022/09/18 11:54:05;;;;;;;1.50;0.60;;;;;;;;;;5020211;28;20034;-83
2022/09/18 11:56:39;;;;;;;0.60;0.50;;;;;;;;;;5019548;28;20048;-84
2022/09/18 11:59:22;;;;;;;1.00;0.80;;;;;;;;;;5020627;28;20036;-84
2022/09/18 12:01:53;;;;;;;1.85;0.80;;;;;;;;;;5019817;28;20061;-82
2022/09/18 12:04:37;;;;;;;1.00;0.68;;;;;;;;;;5016793;28;20033;-84
2022/09/18 12:07:18;;;;;;;1.20;0.80;;;;;;;;;;5020990;28;20034;-84
2022/09/18 12:09:59;;;;;;;1.55;0.90;;;;;;;;;;5021126;28;20033;-83
2022/09/18 12:12:34;;;;;;;1.45;0.57;;;;;;;;;;5018723;28;20042;-83
2022/09/18 12:15:08;;;;;;;0.65;0.47;;;;;;;;;;5019540;28;20040;-83
2022/09/18 12:17:43;;;;;;;;;;;;;;;;;;5020472;28;20045;-82
2022/09/18 12:20:39;;;;;;;0.75;0.40;;;;;;;;;;5020288;28;19913;-83
2022/09/18 12:23:13;;;;;;;1.88;0.70;;;;;;;;;;5020136;28;20062;-83
2022/09/18 12:25:57;;;;;;;1.55;1.00;;;;;;;;;;5020350;28;20388;-83
2022/09/18 12:28:49;;;;;;;2.30;1.20;;;;;;;;;;5019454;28;20092;-83
2022/09/18 12:31:18;;;;;;;1.73;0.70;;;;;;;;;;5020639;28;20041;-83
2022/09/18 12:33:57;;;;;;;0.50;0.38;;;;;;;;;;5020203;28;20026;-83
2022/09/18 12:36:25;;;;;;;3.22;0.45;;;;;;;;;;5018380;28;20042;-83
2022/09/18 12:39:28;;;;;;;1.33;0.90;;;;;;;;;;5019509;28;20037;-83
2022/09/18 12:42:10;;;;;;;0.95;0.80;;;;;;;;;;5019362;28;20072;-83
2022/09/18 12:44:52;;;;;;;0.70;0.60;;;;;;;;;;5002178;28;20037;-83
2022/09/18 12:47:29;;;;;;;1.65;0.65;;;;;;;;;;5019742;28;20109;-84
2022/09/18 12:50:00;;;;;;;1.73;0.80;;;;;;;;;;5020454;28;20034;-83
2022/09/18 12:53:04;;;;;;;1.35;0.70;;;;;;;;;;5021273;28;20049;-82
2022/09/18 12:55:52;;;;;;;1.75;1.10;;;;;;;;;;5019463;28;20029;-83
2022/09/18 12:58:54;;;;;;;1.52;1.00;;;;;;;;;;5020763;28;20430;-83
2022/09/18 13:01:45;;;;;;;0.60;0.60;;;;;;;;;;5019305;28;20034;-83
2022/09/18 13:04:31;;;;;;;1.05;0.60;;;;;;;;;;5019997;28;20585;-83
2022/09/18 13:07:13;;;;;;;1.40;0.52;;;;;;;;;;5020270;28;20030;-83
2022/09/18 13:09:58;;;;;;;0.70;0.60;;;;;;;;;;5020366;28;20036;-84
2022/09/18 13:12:34;;;;;;;1.88;0.60;;;;;;;;;;5018218;28;20025;-82
2022/09/18 13:15:19;;;;;;;1.02;0.80;;;;;;;;;;5018330;28;20120;-84
2022/09/18 13:17:49;;;;;;;1.38;0.80;;;;;;;;;;5001620;28;20040;-83
2022/09/18 13:20:24;;;;;;;1.85;1.10;;;;;;;;;;5018645;28;20029;-84
2022/09/18 13:22:50;;;;;;;0.70;0.70;;;;;;;;;;5021267;28;20073;-84
2022/09/18 13:25:33;;;;;;;1.42;0.80;;;;;;;;;;5020506;28;20041;-84
2022/09/18 13:28:01;;;;;;;1.92;0.60;;;;;;;;;;5019864;28;20038;-84
2022/09/18 13:30:29;;;;;;;1.10;0.80;;;;;;;;;;5021296;28;20041;-85
2022/09/18 13:32:57;;;;;;;2.72;1.10;;;;;;;;;;5021750;28;20513;-84
2022/09/18 13:35:31;;;;;;;3.00;1.65;;;;;;;;;;5021728;28;20037;-84
2022/09/18 13:38:18;;;;;;;2.00;1.20;;;;;;;;;;5022771;28;20069;-84
2022/09/18 13:40:55;;;;;;;3.33;1.20;;;;;;;;;;5020500;28;20038;-83
2022/09/18 13:43:26;;;;;;;1.17;0.70;;;;;;;;;;5019456;28;20040;-84
2022/09/18 13:45:54;;;;;;;0.90;0.70;;;;;;;;;;5019203;28;20463;-83
2022/09/18 13:48:55;;;;;;;2.10;0.75;;;;;;;;;;5001353;28;20394;-83
2022/09/18 13:51:27;;;;;;;5.93;1.60;;;;;;;;;;5014915;28;20065;-83
2022/09/18 13:54:11;;;;;;;1.63;1.15;;;;;;;;;;5017188;28;20104;-83
2022/09/18 13:56:55;;;;;;;;;;;;;;;;;;5018515;28;20041;-83
2022/09/18 13:59:22;;;;;;;0.93;0.70;;;;;;;;;;5016247;28;19917;-83
2022/09/18 14:01:53;;;;;;;1.48;0.90;;;;;;;;;;5016856;28;20445;-84
2022/09/18 14:04:37;;;;;;;1.17;0.70;;;;;;;;;;5018154;28;20038;-83
2022/09/18 14:07:02;;;;;;;0.80;0.80;;;;;;;;;;5017831;28;20414;-83
2022/09/18 14:09:51;;;;;;;2.40;0.85;;;;;;;;;;5016308;28;20034;-83
2022/09/18 14:12:18;;;;;;;0.85;0.50;;;;;;;;;;5019041;28;20038;-82
2022/09/18 14:15:00;;;;;;;2.55;1.00;;;;;;;;;;5019870;28;20686;-84
2022/09/18 14:17:28;;;;;;;2.05;1.20;;;;;;;;;;5021615;28;20042;-83
2022/09/18 14:20:07;;;;;;;1.90;1.40;;;;;;;;;;5004253;28;20058;-83
2022/09/18 14:22:36;;;;;;;2.50;1.65;;;;;;;;;;5020960;28;20041;-84
2022/09/18 14:25:09;;;;;;;1.58;1.10;;;;;;;;;;5018667;28;20523;-83
2022/09/18 14:27:47;;;;;;;3.22;0.90;;;;;;;;;;5019410;28;20069;-84
2022/09/18 14:30:27;;;;;;;1.63;1.02;;;;;;;;;;5023397;28;20038;-85
2022/09/18 14:32:59;;;;;;;2.42;1.50;;;;;;;;;;5011594;28;20041;-84
2022/09/18 14:36:04;;;;;;;1.67;1.23;;;;;;;;;;5001579;28;20092;-84
2022/09/18 14:38:39;;;;;;;1.48;1.00;;;;;;;;;;4966612;28;20042;-84
2022/09/18 14:41:25;;;;;;;1.85;0.68;;;;;;;;;;5018779;28;20033;-84
2022/09/18 14:43:54;;;;;;;1.95;0.70;;;;;;;;;;5019960;28;20052;-84
2022/09/18 14:46:23;;;;;;;2.03;1.10;;;;;;;;;;5019252;28;20041;-84
2022/09/18 14:48:49;;;;;;;2.67;1.02;;;;;;;;;;5018086;28;20053;-85
2022/09/18 14:51:21;;;;;;;2.65;1.10;;;;;;;;;;5018801;28;20434;-84
2022/09/18 14:53:55;;;;;;;1.98;0.70;;;;;;;;;;5018270;28;20093;-84
2022/09/18 14:56:33;;;;;;;1.58;0.70;;;;;;;;;;5019181;28;20045;-84
2022/09/18 14:59:03;;;;;;;1.08;0.57;;;;;;;;;;5020246;28;20456;-85
2022/09/18 15:01:31;;;;;;;2.40;0.70;;;;;;;;;;5020429;28;20041;-84
2022/09/18 15:04:00;;;;;;;1.05;0.50;;;;;;;;;;5018891;28;20041;-84
2022/09/18 15:06:36;;;;;;;1.73;0.60;;;;;;;;;;5020133;28;20049;-84
2022/09/18 15:09:03;;;;;;;1.73;0.70;;;;;;;;;;5019572;28;20084;-84
2022/09/18 15:11:29;;;;;;;1.98;0.63;;;;;;;;;;5019264;28;20045;-84
2022/09/18 15:13:55;;;;;;;1.33;0.60;;;;;;;;;;5019931;28;20034;-86
2022/09/18 15:16:25;;;;;;;1.17;0.60;;;;;;;;;;5003005;28;20030;-84
2022/09/18 15:18:52;;;;;;;1.00;0.68;;;;;;;;;;5022224;28;20483;-84
2022/09/18 15:21:32;;;;;;;1.17;0.68;;;;;;;;;;5022792;28;20030;-84
2022/09/18 15:24:01;;;;;;;1.77;0.60;;;;;;;;;;5020551;28;20037;-84
2022/09/18 15:26:33;;;;;;;3.00;0.70;;;;;;;;;;5022716;28;20017;-84
2022/09/18 15:29:01;;;;;;;1.67;0.70;;;;;;;;;;5021767;28;20622;-83
2022/09/18 15:31:32;;;;;;;1.20;0.70;;;;;;;;;;5037314;28;20046;-83